CheckWX is a tool to help pilots better visualize weather data.  It is not intended as a substitute for an official pre-flight weather briefing.

14:53:00 UTC

KSLB METAR
Storm Lake Municipal Airport
Storm Lake, Iowa, USA
Current

18 mins ago

KSLB 201435Z AUTO 05010KT 10SM FEW017 07/04 A3015 RMK AO2
Observed
May-20 @ 14:35 UTC
Wind
  • 050° at 10 KTS
Visibility
10 SM
Flight Rules
VFR
Cloud Levels
  • Few at 1,700' AGL
Temperature
C / 45°F
Dewpoint
C / 39°F
Humidity
81%
Altimeter
30.15" Hg
Pressure
1021.02 hPa
Previous

38 mins ago

KSLB 201415Z AUTO 04008KT 10SM SCT016 07/04 A3013 RMK AO2
Observed
May-20 @ 14:15 UTC
Wind
  • 040° at 8 KTS
Visibility
10 SM
Flight Rules
VFR
Cloud Levels
  • Scattered at 1,600' AGL
Temperature
C / 45°F
Dewpoint
C / 39°F
Humidity
81%
Altimeter
30.13" Hg
Pressure
1020.32 hPa
Previous

58 mins ago

KSLB 201355Z AUTO 03009G15KT 10SM CLR 06/04 A3012 RMK AO2
Observed
May-20 @ 13:55 UTC
Wind
  • 030° at 9 KTS
  • Gusting to 15 KTS
Visibility
10 SM
Flight Rules
VFR
Cloud Levels
  • Clear skies
Temperature
C / 43°F
Dewpoint
C / 39°F
Humidity
87%
Altimeter
30.12" Hg
Pressure
1020.02 hPa